createdAt,value
2023-12-29T00:00:51.031Z,98710.19
2023-12-29T00:03:38.194Z,98709.22
2023-12-29T00:06:05.477Z,98699.53
2023-12-29T00:08:32.684Z,98710.19
2023-12-29T00:11:00.079Z,98706.75
2023-12-29T00:13:27.162Z,98704.06
2023-12-29T00:15:54.734Z,98701.16
2023-12-29T00:18:22.080Z,98699.53
2023-12-29T00:20:50.085Z,98710.50
2023-12-29T00:23:32.970Z,98696.72
2023-12-29T00:25:59.769Z,98687.91
2023-12-29T00:28:27.057Z,98676.38
2023-12-29T00:31:01.114Z,98668.47
2023-12-29T00:33:30.995Z,98672.00
2023-12-29T00:35:58.213Z,98653.81
2023-12-29T00:38:27.528Z,98656.59
2023-12-29T00:40:54.399Z,98658.34
2023-12-29T00:43:22.163Z,98663.81
2023-12-29T00:45:49.024Z,98668.22
2023-12-29T00:48:16.253Z,98663.34
2023-12-29T00:50:43.505Z,98667.25
2023-12-29T00:53:10.595Z,98665.63
2023-12-29T00:55:37.746Z,98673.69
2023-12-29T00:58:05.160Z,98675.53
2023-12-29T01:00:32.196Z,98680.28
2023-12-29T01:02:59.431Z,98674.91
2023-12-29T01:05:26.472Z,98681.78
2023-12-29T01:07:53.916Z,98682.97
2023-12-29T01:10:20.765Z,98678.66
2023-12-29T01:12:48.902Z,98678.56
2023-12-29T01:15:15.999Z,98683.94
2023-12-29T01:17:43.395Z,98678.81
2023-12-29T01:20:10.637Z,98668.16
2023-12-29T01:22:37.719Z,98670.19
2023-12-29T01:25:04.867Z,98662.47
2023-12-29T01:27:32.168Z,98658.47
2023-12-29T01:29:59.026Z,98654.63
2023-12-29T01:32:26.275Z,98666.25
2023-12-29T01:34:53.959Z,98656.13
2023-12-29T01:37:21.332Z,98647.53
2023-12-29T01:39:48.221Z,98639.81
2023-12-29T01:42:15.410Z,98636.88
2023-12-29T01:44:42.196Z,98644.31
2023-12-29T01:47:15.342Z,98643.56
2023-12-29T01:49:42.256Z,98646.25
2023-12-29T01:52:09.687Z,98652.59
2023-12-29T01:54:39.247Z,98642.94
2023-12-29T01:57:06.932Z,98642.09
2023-12-29T01:59:33.772Z,98644.53
2023-12-29T02:02:00.954Z,98641.84
2023-12-29T02:04:28.326Z,98631.88
2023-12-29T02:06:56.064Z,98637.47
2023-12-29T02:09:23.353Z,98627.66
2023-12-29T02:11:50.491Z,98626.19
2023-12-29T02:14:17.756Z,98639.63
2023-12-29T02:16:44.820Z,98634.03
2023-12-29T02:19:26.756Z,98630.25
2023-12-29T02:21:53.946Z,98624.34
2023-12-29T02:24:20.919Z,98631.19
2023-12-29T02:26:49.297Z,98618.13
2023-12-29T02:29:16.068Z,98618.13
2023-12-29T02:31:43.174Z,98621.25
2023-12-29T02:34:12.035Z,98616.19
2023-12-29T02:36:43.936Z,98598.81
2023-12-29T02:39:11.291Z,98597.50
2023-12-29T02:41:39.408Z,98595.16
2023-12-29T02:44:06.275Z,98588.56
2023-12-29T02:46:33.614Z,98590.31
2023-12-29T02:49:00.574Z,98581.25
2023-12-29T02:51:27.716Z,98587.22
2023-12-29T02:53:54.506Z,98586.91
2023-12-29T02:56:21.601Z,98587.22
2023-12-29T02:58:49.324Z,98592.38
2023-12-29T03:01:16.662Z,98587.97
2023-12-29T03:03:44.715Z,98580.66
2023-12-29T03:06:11.914Z,98589.69
2023-12-29T03:08:38.705Z,98587.97
2023-12-29T03:11:05.842Z,98588.19
2023-12-29T03:13:32.695Z,98578.41
2023-12-29T03:15:59.911Z,98580.88
2023-12-29T03:18:26.786Z,98582.16
2023-12-29T03:20:54.212Z,98570.53
2023-12-29T03:23:20.987Z,98564.09
2023-12-29T03:25:48.107Z,98568.09
2023-12-29T03:28:15.149Z,98577.53
2023-12-29T03:30:42.411Z,98571.50
2023-12-29T03:33:09.314Z,98564.84
2023-12-29T03:35:36.427Z,98563.13
2023-12-29T03:38:03.999Z,98559.38
2023-12-29T03:40:31.311Z,98561.75
2023-12-29T03:42:58.177Z,98566.78
2023-12-29T03:45:25.261Z,98563.44
2023-12-29T03:47:52.123Z,98547.69
2023-12-29T03:50:19.349Z,98541.00
2023-12-29T03:52:46.105Z,98538.09
2023-12-29T03:55:13.572Z,98544.75
2023-12-29T03:57:40.460Z,98534.09
2023-12-29T04:00:08.301Z,98542.16
2023-12-29T04:02:35.134Z,98544.13
2023-12-29T04:05:02.704Z,98541.44
2023-12-29T04:07:29.760Z,98531.56
2023-12-29T04:09:56.931Z,98533.38
2023-12-29T04:12:23.758Z,98540.56
2023-12-29T04:14:50.823Z,98537.78
2023-12-29T04:17:17.869Z,98530.91
2023-12-29T04:19:45.111Z,98526.63
2023-12-29T04:22:12.005Z,98529.31
2023-12-29T04:24:39.225Z,98535.75
2023-12-29T04:27:06.000Z,98539.53
2023-12-29T04:29:33.076Z,98539.84
2023-12-29T04:31:59.912Z,98554.78
2023-12-29T04:34:27.069Z,98557.47
2023-12-29T04:36:53.919Z,98547.91
2023-12-29T04:39:21.007Z,98551.22
2023-12-29T04:41:47.901Z,98546.84
2023-12-29T04:44:15.046Z,98545.31
2023-12-29T04:46:41.882Z,98543.50
2023-12-29T04:49:09.352Z,98539.31
2023-12-29T04:51:36.226Z,98535.69
2023-12-29T04:54:03.439Z,98533.31
2023-12-29T04:56:30.455Z,98530.63
2023-12-29T04:58:57.903Z,98523.84
2023-12-29T05:01:24.826Z,98532.22
2023-12-29T05:03:52.045Z,98534.81
2023-12-29T05:06:18.921Z,98525.78
2023-12-29T05:08:45.970Z,98533.53
2023-12-29T05:11:12.820Z,98526.31
2023-12-29T05:13:39.926Z,98522.78
2023-12-29T05:16:07.145Z,98523.19
2023-12-29T05:18:34.437Z,98509.66
2023-12-29T05:21:01.302Z,98506.19
2023-12-29T05:23:28.534Z,98514.25
2023-12-29T05:25:55.311Z,98515.88
2023-12-29T05:28:22.465Z,98513.19
2023-12-29T05:30:49.400Z,98504.91
2023-12-29T05:33:16.846Z,98512.22
2023-12-29T05:35:43.682Z,98520.41
2023-12-29T05:38:10.780Z,98521.16
2023-12-29T05:40:37.606Z,98512.97
2023-12-29T05:43:05.035Z,98518.00
2023-12-29T05:45:31.883Z,98527.88
2023-12-29T05:47:59.276Z,98528.00
2023-12-29T05:50:26.179Z,98536.69
2023-12-29T05:52:53.320Z,98532.00
2023-12-29T05:55:20.438Z,98534.34
2023-12-29T05:57:47.675Z,98522.50
2023-12-29T06:00:15.653Z,98526.63
2023-12-29T06:02:43.467Z,98531.19
2023-12-29T06:05:15.953Z,98534.00
2023-12-29T06:07:43.182Z,98531.19
2023-12-29T06:10:10.880Z,98530.69
2023-12-29T06:12:38.583Z,98532.19
2023-12-29T06:15:05.719Z,98541.00
2023-12-29T06:17:33.704Z,98535.53
2023-12-29T06:20:00.697Z,98539.47
2023-12-29T06:22:28.256Z,98533.16
2023-12-29T06:24:55.103Z,98538.41
2023-12-29T06:27:22.371Z,98529.41
2023-12-29T06:29:49.178Z,98520.69
2023-12-29T06:32:16.267Z,98507.84
2023-12-29T06:34:43.132Z,98509.63
2023-12-29T06:37:10.403Z,98509.94
2023-12-29T06:39:37.308Z,98511.25
2023-12-29T06:42:04.689Z,98512.22
2023-12-29T06:44:31.451Z,98497.06
2023-12-29T06:46:58.548Z,98500.63
2023-12-29T06:49:25.465Z,98488.19
2023-12-29T06:51:52.862Z,98490.50
2023-12-29T06:54:19.665Z,98510.63
2023-12-29T06:56:46.891Z,98512.34
2023-12-29T06:59:13.810Z,98518.78
2023-12-29T07:01:42.268Z,98511.69
2023-12-29T07:04:11.481Z,98509.13
2023-12-29T07:06:38.752Z,98520.84
2023-12-29T07:09:05.951Z,98524.47
2023-12-29T07:11:33.023Z,98521.56
2023-12-29T07:13:59.840Z,98514.63
2023-12-29T07:16:27.215Z,98516.53
2023-12-29T07:18:54.208Z,98521.34
2023-12-29T07:21:21.662Z,98528.31
2023-12-29T07:23:48.480Z,98530.72
2023-12-29T07:26:15.624Z,98524.25
2023-12-29T07:28:42.411Z,98544.44
2023-12-29T07:31:09.734Z,98529.09
2023-12-29T07:33:36.848Z,98533.47
2023-12-29T07:36:04.396Z,98529.72
2023-12-29T07:38:31.188Z,98535.00
2023-12-29T07:40:58.276Z,98539.25
2023-12-29T07:43:25.089Z,98543.50
2023-12-29T07:45:52.492Z,98531.66
2023-12-29T07:48:19.454Z,98534.78
2023-12-29T07:50:46.711Z,98535.22
2023-12-29T07:53:13.460Z,98534.97
2023-12-29T07:55:41.246Z,98533.28
2023-12-29T07:58:11.195Z,98526.06
2023-12-29T08:00:39.045Z,98529.38
2023-12-29T08:03:06.926Z,98536.25
2023-12-29T08:05:35.133Z,98533.56
2023-12-29T08:08:02.218Z,98534.09
2023-12-29T08:10:29.563Z,98528.38
2023-12-29T08:12:56.452Z,98536.97
2023-12-29T08:15:23.871Z,98544.25
2023-12-29T08:17:50.788Z,98531.47
2023-12-29T08:20:17.988Z,98537.59
2023-12-29T08:22:44.749Z,98541.88
2023-12-29T08:25:12.317Z,98535.63
2023-12-29T08:27:39.178Z,98545.31
2023-12-29T08:30:07.066Z,98542.41
2023-12-29T08:32:34.710Z,98539.94
2023-12-29T08:35:02.120Z,98535.50
2023-12-29T08:37:29.004Z,98524.66
2023-12-29T08:39:56.655Z,98534.44
2023-12-29T08:42:24.262Z,98537.88
2023-12-29T08:44:51.414Z,98540.44
2023-12-29T08:47:18.173Z,98535.81
2023-12-29T08:49:45.315Z,98533.84
2023-12-29T08:52:12.308Z,98535.00
2023-12-29T08:54:39.522Z,98537.59
2023-12-29T08:57:07.917Z,98540.53
2023-12-29T08:59:35.055Z,98548.09
2023-12-29T09:02:01.977Z,98549.34
2023-12-29T09:04:29.193Z,98552.91
2023-12-29T09:06:56.018Z,98553.63
2023-12-29T09:09:23.199Z,98556.19
2023-12-29T09:11:49.979Z,98556.72
2023-12-29T09:14:17.657Z,98555.84
2023-12-29T09:16:47.555Z,98542.19
2023-12-29T09:19:22.926Z,98541.69
2023-12-29T09:21:58.166Z,98540.94
2023-12-29T09:24:25.829Z,98534.50
2023-12-29T09:26:53.493Z,98530.91
2023-12-29T09:29:20.598Z,98537.69
2023-12-29T09:31:47.461Z,98532.28
2023-12-29T09:34:14.712Z,98520.53
2023-12-29T09:36:41.636Z,98514.56
2023-12-29T09:39:09.214Z,98507.22
2023-12-29T09:41:36.007Z,98515.19
2023-12-29T09:44:03.132Z,98509.69
2023-12-29T09:46:30.064Z,98512.13
2023-12-29T09:48:57.463Z,98508.31
2023-12-29T09:51:25.732Z,98501.88
2023-12-29T09:53:53.271Z,98497.72
2023-12-29T09:56:20.440Z,98500.25
2023-12-29T09:58:49.000Z,98492.81
2023-12-29T10:01:15.943Z,98489.75
2023-12-29T10:03:43.408Z,98500.50
2023-12-29T10:06:10.534Z,98495.75
2023-12-29T10:08:37.749Z,98503.84
2023-12-29T10:11:04.654Z,98503.56
2023-12-29T10:13:32.033Z,98496.97
2023-12-29T10:16:05.434Z,98500.88
2023-12-29T10:18:39.587Z,98506.16
2023-12-29T10:21:20.972Z,98505.78
2023-12-29T10:23:56.066Z,98502.66
2023-12-29T10:26:22.847Z,98503.50
2023-12-29T10:28:50.003Z,98510.59
2023-12-29T10:31:19.746Z,98497.75
2023-12-29T10:33:52.793Z,98503.88
2023-12-29T10:36:19.728Z,98494.53
2023-12-29T10:38:46.966Z,98498.13
2023-12-29T10:41:18.084Z,98501.19
2023-12-29T10:43:48.385Z,98493.94
2023-12-29T10:46:16.335Z,98485.84
2023-12-29T10:48:43.847Z,98476.19
2023-12-29T10:51:10.858Z,98473.22
2023-12-29T10:53:41.287Z,98477.53
2023-12-29T10:56:23.884Z,98479.72
2023-12-29T10:59:04.400Z,98482.44
2023-12-29T11:01:40.736Z,98470.66
2023-12-29T11:04:10.930Z,98468.69
2023-12-29T11:06:47.960Z,98471.53
2023-12-29T11:09:15.307Z,98461.72
2023-12-29T11:11:42.263Z,98472.84
2023-12-29T11:14:11.123Z,98467.34
2023-12-29T11:16:37.917Z,98459.25
2023-12-29T11:19:05.246Z,98464.28
2023-12-29T11:21:32.058Z,98444.41
2023-12-29T11:23:59.396Z,98452.00
2023-12-29T11:26:26.178Z,98446.72
2023-12-29T11:28:54.261Z,98444.88
2023-12-29T11:31:21.150Z,98442.91
2023-12-29T11:33:52.134Z,98442.78
2023-12-29T11:36:33.166Z,98450.75
2023-12-29T11:39:19.466Z,98449.53
2023-12-29T11:42:00.750Z,98445.84
2023-12-29T11:44:28.684Z,98455.03
2023-12-29T11:46:56.795Z,98452.94
2023-12-29T11:49:24.130Z,98441.91
2023-12-29T11:51:51.126Z,98446.31
2023-12-29T11:54:25.454Z,98449.00
2023-12-29T11:56:52.964Z,98438.22
2023-12-29T11:59:21.236Z,98430.28
2023-12-29T12:01:50.221Z,98426.84
2023-12-29T12:04:43.304Z,98421.31
2023-12-29T12:07:23.194Z,98419.63
2023-12-29T12:09:51.159Z,98419.97
2023-12-29T12:12:41.766Z,98425.75
2023-12-29T12:15:30.819Z,98422.78
2023-12-29T12:17:58.344Z,98430.13
2023-12-29T12:20:25.905Z,98425.75
2023-12-29T12:23:00.625Z,98423.75
2023-12-29T12:25:29.406Z,98424.88
2023-12-29T12:27:57.066Z,98427.44
2023-12-29T12:30:24.227Z,98419.22
2023-12-29T12:33:04.928Z,98428.06
2023-12-29T12:35:32.772Z,98426.19
2023-12-29T12:38:12.252Z,98422.78
2023-12-29T12:40:39.733Z,98417.66
2023-12-29T12:43:07.810Z,98417.78
2023-12-29T12:45:36.341Z,98429.16
2023-12-29T12:48:05.302Z,98431.13
2023-12-29T12:50:32.633Z,98430.00
2023-12-29T12:52:59.884Z,98419.22
2023-12-29T12:55:27.192Z,98418.25
2023-12-29T12:57:55.641Z,98422.78
2023-12-29T13:00:22.880Z,98419.09
2023-12-29T13:02:50.181Z,98423.50
2023-12-29T13:05:17.777Z,98422.78
2023-12-29T13:07:44.751Z,98424.34
2023-12-29T13:10:12.059Z,98422.66
2023-12-29T13:12:39.531Z,98412.59
2023-12-29T13:15:11.691Z,98412.47
2023-12-29T13:17:38.580Z,98417.88
2023-12-29T13:20:07.743Z,98420.69
2023-12-29T13:22:35.804Z,98417.53
2023-12-29T13:25:03.441Z,98427.31
2023-12-29T13:27:30.280Z,98421.06
2023-12-29T13:29:57.348Z,98426.94
2023-12-29T13:32:29.616Z,98430.63
2023-12-29T13:35:07.505Z,98421.78
2023-12-29T13:37:45.656Z,98425.34
2023-12-29T13:40:43.772Z,98428.31
2023-12-29T13:43:12.105Z,98428.31
2023-12-29T13:45:41.878Z,98434.28
2023-12-29T13:48:10.626Z,98436.88
2023-12-29T13:50:37.848Z,98434.28
2023-12-29T13:53:05.020Z,98442.50
2023-12-29T13:55:32.337Z,98443.34
2023-12-29T13:58:00.265Z,98445.78
2023-12-29T14:00:28.034Z,98438.72
2023-12-29T14:02:57.575Z,98428.19
2023-12-29T14:05:40.610Z,98436.28
2023-12-29T14:08:28.534Z,98441.53
2023-12-29T14:10:55.659Z,98439.09
2023-12-29T14:13:22.509Z,98453.53
2023-12-29T14:15:53.012Z,98443.47
2023-12-29T14:18:23.055Z,98444.59
2023-12-29T14:20:51.200Z,98444.47
2023-12-29T14:23:21.164Z,98450.38
2023-12-29T14:25:48.500Z,98460.91
2023-12-29T14:28:19.589Z,98452.69
2023-12-29T14:30:47.217Z,98466.44
2023-12-29T14:33:14.258Z,98470.06
2023-12-29T14:35:41.374Z,98456.59
2023-12-29T14:38:08.149Z,98455.63
2023-12-29T14:40:35.929Z,98463.34
2023-12-29T14:43:03.111Z,98454.53
2023-12-29T14:45:30.956Z,98451.84
2023-12-29T14:50:26.303Z,98447.94
2023-12-29T14:52:53.649Z,98441.31
2023-12-29T14:55:21.887Z,98429.94
2023-12-29T14:57:48.900Z,98446.59
2023-12-29T15:00:16.648Z,98439.63
2023-12-29T15:02:44.170Z,98452.84
2023-12-29T15:05:11.672Z,98452.38
2023-12-29T15:07:38.456Z,98445.41
2023-12-29T15:10:06.217Z,98442.97
2023-12-29T15:12:33.027Z,98443.69
2023-12-29T15:15:00.267Z,98451.16
2023-12-29T15:17:27.100Z,98445.78
2023-12-29T15:19:54.257Z,98441.25
2023-12-29T15:22:22.764Z,98441.88
2023-12-29T15:24:51.137Z,98442.63
2023-12-29T15:27:17.938Z,98441.13
2023-12-29T15:29:45.078Z,98447.41
2023-12-29T15:32:11.838Z,98442.13
2023-12-29T15:34:39.033Z,98438.84
2023-12-29T15:37:07.199Z,98441.91
2023-12-29T15:39:34.312Z,98438.34
2023-12-29T15:42:01.667Z,98436.50
2023-12-29T15:44:28.747Z,98442.75
2023-12-29T15:46:56.241Z,98443.72
2023-12-29T15:49:23.587Z,98444.84
2023-12-29T15:51:50.571Z,98445.09
2023-12-29T15:54:17.648Z,98449.03
2023-12-29T15:56:44.383Z,98455.38
2023-12-29T15:59:11.589Z,98461.63
2023-12-29T16:01:38.397Z,98449.25
2023-12-29T16:04:05.848Z,98445.72
2023-12-29T16:06:32.976Z,98437.50
2023-12-29T16:09:00.681Z,98435.81
2023-12-29T16:11:29.052Z,98425.88
2023-12-29T16:13:56.343Z,98427.97
2023-12-29T16:16:28.500Z,98430.53
2023-12-29T16:18:55.854Z,98421.72
2023-12-29T16:21:22.705Z,98418.56
2023-12-29T16:23:49.791Z,98422.31
2023-12-29T16:26:17.262Z,98426.72
2023-12-29T16:28:45.496Z,98424.78
2023-12-29T16:31:12.546Z,98423.81
2023-12-29T16:33:40.466Z,98434.19
2023-12-29T16:36:16.385Z,98436.75
2023-12-29T16:38:50.380Z,98425.97
2023-12-29T16:41:17.635Z,98423.53
2023-12-29T16:43:44.874Z,98432.00
2023-12-29T16:46:11.780Z,98422.31
2023-12-29T16:48:38.962Z,98418.66
2023-12-29T16:51:09.011Z,98420.22
2023-12-29T16:53:36.569Z,98413.63
2023-12-29T16:56:04.151Z,98414.47
2023-12-29T16:58:32.136Z,98413.25
2023-12-29T17:00:59.634Z,98409.97
2023-12-29T17:03:27.888Z,98419.00
2023-12-29T17:05:54.716Z,98406.78
2023-12-29T17:08:21.842Z,98407.50
2023-12-29T17:10:48.609Z,98413.25
2023-12-29T17:13:15.819Z,98408.88
2023-12-29T17:15:42.698Z,98412.41
2023-12-29T17:18:09.837Z,98408.13
2023-12-29T17:20:37.066Z,98412.16
2023-12-29T17:23:04.285Z,98405.19
2023-12-29T17:25:33.287Z,98417.78
2023-12-29T17:28:02.109Z,98419.50
2023-12-29T17:30:28.919Z,98418.91
2023-12-29T17:32:56.069Z,98417.41
2023-12-29T17:35:24.763Z,98403.97
2023-12-29T17:37:51.905Z,98403.13
2023-12-29T17:40:18.718Z,98403.00
2023-12-29T17:42:45.875Z,98411.91
2023-12-29T17:45:13.309Z,98411.53
2023-12-29T17:47:41.444Z,98419.50
2023-12-29T17:50:09.069Z,98428.91
2023-12-29T17:52:36.273Z,98421.69
2023-12-29T17:55:03.126Z,98419.97
2023-12-29T17:57:30.292Z,98428.66
2023-12-29T17:59:57.095Z,98431.88
2023-12-29T18:02:25.227Z,98426.13
2023-12-29T18:04:51.990Z,98429.78
2023-12-29T18:07:19.073Z,98429.78
2023-12-29T18:09:45.908Z,98435.16
2023-12-29T18:12:13.358Z,98439.69
2023-12-29T18:14:44.399Z,98441.25
2023-12-29T18:17:12.347Z,98439.03
2023-12-29T18:19:39.924Z,98437.69
2023-12-29T18:22:07.144Z,98436.34
2023-12-29T18:24:34.397Z,98427.56
2023-12-29T18:27:02.321Z,98435.97
2023-12-29T18:29:29.159Z,98445.88
2023-12-29T18:32:18.153Z,98441.00
2023-12-29T18:34:44.043Z,98436.34
2023-12-29T18:37:11.686Z,98436.59
2023-12-29T18:39:39.921Z,98443.56
2023-12-29T18:42:07.173Z,98442.78
2023-12-29T18:44:37.890Z,98438.78
2023-12-29T18:47:05.170Z,98449.19
2023-12-29T18:49:32.325Z,98446.25
2023-12-29T18:51:59.635Z,98443.81
2023-12-29T18:54:29.642Z,98451.63
2023-12-29T18:56:56.985Z,98454.31
2023-12-29T18:59:23.873Z,98456.38
2023-12-29T19:01:53.318Z,98446.63
2023-12-29T19:04:20.322Z,98444.66
2023-12-29T19:06:48.116Z,98443.16
2023-12-29T19:09:15.151Z,98448.31
2023-12-29T19:11:43.005Z,98443.94
2023-12-29T19:14:09.905Z,98445.50
2023-12-29T19:16:37.157Z,98441.97
2023-12-29T19:19:04.086Z,98445.63
2023-12-29T19:21:33.467Z,98447.09
2023-12-29T19:24:02.275Z,98446.00
2023-12-29T19:26:30.348Z,98438.66
2023-12-29T19:28:57.289Z,98444.28
2023-12-29T19:31:26.278Z,98436.59
2023-12-29T19:33:56.219Z,98434.47
2023-12-29T19:36:23.396Z,98440.25
2023-12-29T19:38:50.852Z,98436.47
2023-12-29T19:41:21.969Z,98433.19
2023-12-29T19:43:48.957Z,98443.81
2023-12-29T19:46:16.253Z,98439.28
2023-12-29T19:48:44.107Z,98443.16
2023-12-29T19:51:12.272Z,98434.88
2023-12-29T19:53:39.255Z,98436.47
2023-12-29T19:56:06.700Z,98441.25
2023-12-29T19:58:33.660Z,98436.81
2023-12-29T20:01:02.744Z,98432.41
2023-12-29T20:03:34.473Z,98436.94
2023-12-29T20:06:01.792Z,98429.88
2023-12-29T20:08:28.695Z,98427.41
2023-12-29T20:10:58.639Z,98427.53
2023-12-29T20:13:26.185Z,98432.41
2023-12-29T20:15:53.352Z,98418.84
2023-12-29T20:18:20.191Z,98424.97
2023-12-29T20:20:47.426Z,98419.09
2023-12-29T20:23:14.468Z,98419.81
2023-12-29T20:25:45.606Z,98416.28
2023-12-29T20:28:14.344Z,98414.19
2023-12-29T20:30:42.370Z,98405.63
2023-12-29T20:33:09.313Z,98410.91
2023-12-29T20:35:42.399Z,98403.66
2023-12-29T20:38:14.139Z,98400.13
2023-12-29T20:40:41.975Z,98395.00
2023-12-29T20:43:08.824Z,98397.56
2023-12-29T20:45:46.509Z,98394.88
2023-12-29T20:48:13.913Z,98397.78
2023-12-29T20:50:41.463Z,98393.16
2023-12-29T20:53:09.554Z,98393.16
2023-12-29T20:55:37.819Z,98393.16
2023-12-29T20:58:04.641Z,98392.53
2023-12-29T21:00:31.869Z,98392.91
2023-12-29T21:02:59.412Z,98387.41
2023-12-29T21:05:28.802Z,98389.38
2023-12-29T21:07:55.700Z,98389.84
2023-12-29T21:10:23.169Z,98387.78
2023-12-29T21:12:50.085Z,98390.56
2023-12-29T21:15:17.328Z,98385.69
2023-12-29T21:17:44.255Z,98391.06
2023-12-29T21:20:14.608Z,98384.59
2023-12-29T21:22:43.584Z,98382.78
2023-12-29T21:25:10.709Z,98377.28
2023-12-29T21:27:37.530Z,98378.38
2023-12-29T21:30:06.329Z,98379.13
2023-12-29T21:32:34.994Z,98375.19
2023-12-29T21:35:02.822Z,98369.44
2023-12-29T21:37:31.794Z,98373.75
2023-12-29T21:39:59.117Z,98382.53
2023-12-29T21:42:25.940Z,98370.31
2023-12-29T21:44:53.495Z,98372.75
2023-12-29T21:47:20.282Z,98375.53
2023-12-29T21:49:47.568Z,98382.03
2023-12-29T21:52:14.423Z,98385.69
2023-12-29T21:54:43.123Z,98382.03
2023-12-29T21:57:10.979Z,98373.84
2023-12-29T21:59:38.191Z,98374.69
2023-12-29T22:02:05.004Z,98367.97
2023-12-29T22:04:32.128Z,98363.94
2023-12-29T22:06:58.978Z,98368.34
2023-12-29T22:09:27.660Z,98372.25
2023-12-29T22:11:55.023Z,98369.44
2023-12-29T22:14:22.197Z,98369.94
2023-12-29T22:16:49.121Z,98370.31
2023-12-29T22:19:16.759Z,98361.97
2023-12-29T22:21:44.674Z,98364.66
2023-12-29T22:24:11.827Z,98372.75
2023-12-29T22:26:41.140Z,98382.66
2023-12-29T22:29:08.316Z,98381.06
2023-12-29T22:31:35.636Z,98380.69
2023-12-29T22:34:03.043Z,98373.75
2023-12-29T22:36:29.932Z,98379.97
2023-12-29T22:38:57.018Z,98372.84
2023-12-29T22:41:24.226Z,98372.75
2023-12-29T22:43:51.302Z,98373.84
2023-12-29T22:46:22.360Z,98374.19
2023-12-29T22:48:52.690Z,98370.56
2023-12-29T22:51:19.594Z,98386.06
2023-12-29T22:53:46.770Z,98384.00
2023-12-29T22:56:13.580Z,98378.50
2023-12-29T22:58:41.068Z,98383.00
2023-12-29T23:01:08.659Z,98374.19
2023-12-29T23:03:35.872Z,98383.63
2023-12-29T23:06:02.649Z,98374.19
2023-12-29T23:08:29.801Z,98374.81
2023-12-29T23:10:56.568Z,98362.38
2023-12-29T23:13:23.759Z,98366.63
2023-12-29T23:15:50.958Z,98357.84
2023-12-29T23:18:18.329Z,98360.41
2023-12-29T23:20:45.170Z,98354.19
2023-12-29T23:23:12.353Z,98351.22
2023-12-29T23:25:39.157Z,98349.88
2023-12-29T23:28:06.281Z,98347.44
2023-12-29T23:30:33.175Z,98338.50
2023-12-29T23:33:00.794Z,98330.81
2023-12-29T23:35:28.026Z,98330.31
2023-12-29T23:37:55.531Z,98317.38
2023-12-29T23:40:22.525Z,98318.47
2023-12-29T23:42:50.014Z,98309.41
2023-12-29T23:45:16.819Z,98310.88
2023-12-29T23:47:44.480Z,98297.44
2023-12-29T23:50:11.289Z,98296.69
2023-12-29T23:52:38.395Z,98289.34
2023-12-29T23:55:06.191Z,98294.38
2023-12-29T23:57:33.329Z,98291.69
